Luverne, MN

8:47 AM CDT on July 05, 2015 (GMT -0500)
Luverne | | Change Station
CLOSE
Current Station
Airport
Location: Luverne,
Elevation: 1430 ft
Nearby Weather Stations

Elev 1430 ft 43.62 °N, 96.21 °W | Updated 22 minutes ago

Overcast
Overcast
68 °F
Feels Like 68 °F
N
6
Wind Variable Wind from SSE

Today
High -- | Low -- °F
--% Chance of Precip.
Yesterday
High -- | Low -- °F
Precip. -- in
5:49 AM 9:09 PM
Waning Gibbous, 84% visible
Pressure 29.96 in
Visibility 3.0 miles
Clouds Scattered Clouds 2800 ft
Mostly Cloudy 3800 ft
Overcast 6000 ft
Dew Point 64 °F
Humidity 88%
Rainfall 0.00 in
Snow Depth Not available.
UV 1 out of 12
Pollen 6.10 out of 12
Air Quality Not available.
Flu Activity Not available.
METAR KLYV 051325Z AUTO 16005KT 3SM SCT028 BKN038 OVC060 20/18 A2996 RMK AO2

More Conditions Fewer Conditions

Pressure 29.96 in
Visibility 3.0 miles
Clouds Scattered Clouds 2800 ft
Mostly Cloudy 3800 ft
Overcast 6000 ft
Dew Point 64 °F
Humidity 88%
Rainfall 0.00 in
Snow Depth Not available.
UV 1 out of 12
Pollen 6.10 out of 12
Air Quality Not available.
Flu Activity Not available.
METAR KLYV 051325Z AUTO 16005KT 3SM SCT028 BKN038 OVC060 20/18 A2996 RMK AO2

More Conditions Fewer Conditions

10-Day Weather Forecast

×

Almanac

Astronomy

Jul. 05, 2015 Rise Set
Actual Time
Civil Twilight
Nautical Twilight
Astronomical Twilight
Moon
Length of Visible Light
Length of Day
Tomorrow will be .
, % of the Moon is Illuminated

Today's Extremes

State Highs State Lows

Community

WunderPhotos

Upload Photos

1,835,258 photos uploaded!

WunderBlogs® & News

Nearby

Air Quality

  Air Quality AQ Index Pollutant
Not available.

Snow Depth

Station Depth Elevation

Earthquake Activity

City Distance Mag. Time & Date
Minimum magnitude displayed is 2.5.

Coastal Water Temperatures

Place Temperature

Stations

Nearby Weather Stations

Station Location Temp. Windchill Dew Point Humidity Wind Precip. Elev Updated Type